Time;durP1;ratioP1;P1;durP2;ratioP2;P2;SDS_P1;SDS_P2;PMS_P1;PMS_P2;Temp;Humidity;BMP_temperature;BMP_pressure;BME280_temperature;BME280_humidity;BME280_pressure;Samples;Min_cycle;Max_cycle;Signal;HPM_P1;HPM_P2
2022/10/19 00:01:41;;;;;;;;;;;;;;;16.12;63.66;100962.19;4975779;28;19957;-64
2022/10/19 00:04:06;;;;;;;;;;;;;;;16.36;62.85;100966.59;4977062;28;19926;-63
2022/10/19 00:06:33;;;;;;;;;;;;;;;16.36;62.96;100963.94;4975699;28;19921;-62
2022/10/19 00:09:09;;;;;;;;;;;;;;;16.39;62.94;100958.50;4975880;28;20423;-63
2022/10/19 00:11:35;;;;;;;;;;;;;;;16.30;63.16;100966.81;4976813;28;19910;-62
2022/10/19 00:14:01;;;;;;;;;;;;;;;16.41;62.83;100967.28;4975965;28;19918;-62
2022/10/19 00:16:27;;;;;;;;;;;;;;;16.23;63.47;100965.28;4975965;28;19917;-62
2022/10/19 00:18:56;;;;;;;;;;;;;;;16.27;63.25;100961.59;4976675;28;19926;-63
2022/10/19 00:21:22;;;;;;;;;;;;;;;16.17;63.57;100954.91;4976081;28;19922;-63
2022/10/19 00:23:47;;;;;;;;;;;;;;;16.33;63.25;100956.09;4976220;28;20289;-63
2022/10/19 00:26:13;;;;;;;;;;;;;;;15.99;64.08;100956.41;4974886;28;19925;-63
2022/10/19 00:28:38;;;;;;;;;;;;;;;15.85;64.41;100964.84;4976492;28;19936;-62
2022/10/19 00:31:04;;;;;;;;;;;;;;;15.70;64.74;100965.38;4975594;28;19928;-63
2022/10/19 00:33:30;;;;;;;;;;;;;;;15.49;65.34;100961.63;4975087;28;19973;-63
2022/10/19 00:35:55;;;;;;;;;;;;;;;15.68;64.88;100954.84;4976191;28;19953;-63
2022/10/19 00:38:21;;;;;;;;;;;;;;;15.51;65.06;100954.47;4975092;28;19917;-63
2022/10/19 00:40:46;;;;;;;;;;;;;;;15.64;64.83;100960.22;4975672;28;19921;-63
2022/10/19 00:43:17;;;;;;;;;;;;;;;15.69;64.73;100956.56;4975186;28;19925;-64
2022/10/19 00:45:42;;;;;;;;;;;;;;;15.69;64.38;100948.63;4973921;28;19964;-63
2022/10/19 00:48:10;;;;;;;;;;;;;;;15.53;64.97;100956.19;4976181;28;19949;-64
2022/10/19 00:50:36;;;;;;;;;;;;;;;15.78;64.10;100955.38;4974686;28;19918;-63
2022/10/19 00:53:01;;;;;;;;;;;;;;;15.50;64.88;100955.41;4975786;28;19988;-63
2022/10/19 00:55:27;;;;;;;;;;;;;;;15.64;64.62;100952.28;4976293;28;19986;-63
2022/10/19 00:57:52;;;;;;;;;;;;;;;15.62;64.63;100948.84;4974684;28;19937;-63
2022/10/19 01:00:18;;;;;;;;;;;;;;;15.43;65.34;100945.94;4973411;28;19922;-63
2022/10/19 01:02:43;;;;;;;;;;;;;;;15.28;65.51;100942.00;4972790;28;19922;-63
2022/10/19 01:05:09;;;;;;;;;;;;;;;15.15;65.56;100932.72;4976008;28;20490;-63
2022/10/19 01:07:34;;;;;;;;;;;;;;;15.26;65.32;100935.88;4974480;28;19922;-63
2022/10/19 01:09:59;;;;;;;;;;;;;;;14.82;66.84;100945.22;4974854;28;20279;-63
2022/10/19 01:12:43;;;;;;;;;;;;;;;14.91;66.55;100944.94;4975944;28;19965;-63
2022/10/19 01:15:09;;;;;;;;;;;;;;;14.89;66.38;100945.00;4974589;28;20286;-62
2022/10/19 01:17:37;;;;;;;;;;;;;;;14.73;66.96;100944.59;4973264;28;19932;-62
2022/10/19 01:20:05;;;;;;;;;;;;;;;14.78;66.88;100952.38;4975425;28;19933;-64
2022/10/19 01:22:45;;;;;;;;;;;;;;;14.68;67.56;100950.91;4974553;28;19918;-62
2022/10/19 01:25:10;;;;;;;;;;;;;;;14.80;66.72;100947.88;4974553;28;20034;-64
2022/10/19 01:27:41;;;;;;;;;;;;;;;14.87;66.52;100945.94;4974072;28;20009;-62
2022/10/19 01:30:07;;;;;;;;;;;;;;;14.65;67.28;100946.59;4968218;28;20286;-63
2022/10/19 01:32:47;;;;;;;;;;;;;;;14.49;67.94;100940.00;4972346;28;19928;-62
2022/10/19 01:35:12;;;;;;;;;;;;;;;14.89;66.92;100939.69;4975787;28;19918;-63
2022/10/19 01:37:43;;;;;;;;;;;;;;;15.00;66.58;100942.88;4974906;28;20274;-63
2022/10/19 01:40:11;;;;;;;;;;;;;;;15.03;66.35;100932.19;4966956;28;19941;-63
2022/10/19 01:42:55;;;;;;;;;;;;;;;15.24;65.84;100928.00;4974000;28;20025;-62
2022/10/19 01:45:25;;;;;;;;;;;;;;;15.33;65.37;100928.63;4983384;28;20024;-62
2022/10/19 01:47:53;;;;;;;;;;;;;;;15.21;65.75;100922.81;4974466;28;19929;-63
2022/10/19 01:50:23;;;;;;;;;;;;;;;15.28;65.47;100912.91;4973912;28;19918;-62
2022/10/19 01:52:49;;;;;;;;;;;;;;;15.17;65.89;100907.06;4973598;28;19925;-63
2022/10/19 01:55:15;;;;;;;;;;;;;;;14.97;66.29;100902.41;4974322;28;19918;-61
2022/10/19 01:57:46;;;;;;;;;;;;;;;14.76;66.99;100901.28;4973757;28;19918;-61
2022/10/19 02:00:13;;;;;;;;;;;;;;;14.84;66.87;100903.69;4968868;28;20004;-62
2022/10/19 02:02:44;;;;;;;;;;;;;;;14.75;67.34;100910.13;4972997;28;19918;-62
2022/10/19 02:05:11;;;;;;;;;;;;;;;14.83;66.91;100902.84;4999590;28;20424;-62
2022/10/19 02:07:37;;;;;;;;;;;;;;;15.00;66.37;100908.47;4972622;28;19922;-61
2022/10/19 02:10:03;;;;;;;;;;;;;;;14.86;66.81;100900.09;4973470;28;20021;-63
2022/10/19 02:12:30;;;;;;;;;;;;;;;15.10;66.17;100905.53;4974938;28;19989;-63
2022/10/19 02:14:57;;;;;;;;;;;;;;;15.25;65.49;100897.09;4973158;28;19949;-63
2022/10/19 02:17:25;;;;;;;;;;;;;;;15.21;65.65;100895.47;4971732;28;19918;-63
2022/10/19 02:19:52;;;;;;;;;;;;;;;15.94;63.38;100900.06;4973574;28;19929;-62
2022/10/19 02:22:17;;;;;;;;;;;;;;;15.94;63.12;100894.78;4974628;28;20489;-63
2022/10/19 02:24:43;;;;;;;;;;;;;;;15.79;63.32;100890.88;4974247;28;19922;-63
2022/10/19 02:27:08;;;;;;;;;;;;;;;15.91;62.53;100892.22;4972684;28;19929;-63
2022/10/19 02:29:35;;;;;;;;;;;;;;;15.63;63.54;100895.81;4974550;28;19922;-63
2022/10/19 02:32:01;;;;;;;;;;;;;;;15.71;63.12;100914.97;4972312;28;19918;-63
2022/10/19 02:34:26;;;;;;;;;;;;;;;15.51;63.72;100910.31;4974591;28;19918;-63
2022/10/19 02:36:52;;;;;;;;;;;;;;;15.57;63.73;100911.91;4972435;28;19922;-63
2022/10/19 02:39:18;;;;;;;;;;;;;;;15.70;63.36;100907.94;4969623;28;19925;-63
2022/10/19 02:42:04;;;;;;;;;;;;;;;15.73;63.02;100907.00;4973136;28;19929;-63
2022/10/19 02:44:48;;;;;;;;;;;;;;;15.72;63.20;100899.97;4961443;28;20258;-63
2022/10/19 02:47:19;;;;;;;;;;;;;;;15.79;62.96;100898.81;4973643;28;20008;-63
2022/10/19 02:49:45;;;;;;;;;;;;;;;15.64;63.09;100904.59;4972775;28;19918;-63
2022/10/19 02:52:12;;;;;;;;;;;;;;;15.58;63.24;100902.19;4974226;28;19933;-64
2022/10/19 02:54:38;;;;;;;;;;;;;;;15.63;63.36;100902.88;4973131;28;19934;-63
2022/10/19 02:57:13;;;;;;;;;;;;;;;15.53;63.39;100900.56;4974035;28;19933;-63
2022/10/19 02:59:38;;;;;;;;;;;;;;;15.70;62.64;100896.50;4972785;28;19918;-63
2022/10/19 03:02:03;;;;;;;;;;;;;;;15.40;63.50;100896.59;4967920;28;20294;-61
2022/10/19 03:04:28;;;;;;;;;;;;;;;15.39;63.83;100902.78;4973925;28;19925;-62
2022/10/19 03:06:54;;;;;;;;;;;;;;;15.34;64.02;100899.44;4972208;28;19963;-62
2022/10/19 03:09:19;;;;;;;;;;;;;;;15.43;64.08;100900.91;4974301;28;20393;-62
2022/10/19 03:11:44;;;;;;;;;;;;;;;15.61;63.43;100896.78;4972654;28;19992;-63
2022/10/19 03:14:10;;;;;;;;;;;;;;;15.52;63.88;100896.19;4974100;28;19973;-62
2022/10/19 03:16:35;;;;;;;;;;;;;;;15.61;63.51;100897.66;4972764;28;19926;-62
2022/10/19 03:19:00;;;;;;;;;;;;;;;15.62;63.66;100903.81;4973978;28;19921;-62
2022/10/19 03:21:25;;;;;;;;;;;;;;;15.57;63.78;100898.69;4973038;28;19922;-62
2022/10/19 03:23:51;;;;;;;;;;;;;;;15.53;64.00;100908.50;4973598;28;19922;-62
2022/10/19 03:26:16;;;;;;;;;;;;;;;15.64;63.63;100907.25;4973178;28;20017;-61
2022/10/19 03:28:41;;;;;;;;;;;;;;;16.19;62.39;100911.50;4976990;28;19918;-62
2022/10/19 03:31:07;;;;;;;;;;;;;;;15.99;62.88;100908.72;4976679;28;19960;-62
2022/10/19 03:33:32;;;;;;;;;;;;;;;16.30;62.17;100912.91;4977073;28;19930;-62
2022/10/19 03:36:13;;;;;;;;;;;;;;;16.31;62.02;100912.84;4977412;28;19925;-62
2022/10/19 03:38:39;;;;;;;;;;;;;;;15.98;62.93;100921.09;4976923;28;19925;-62
2022/10/19 03:41:05;;;;;;;;;;;;;;;15.98;63.02;100922.91;4974444;28;19922;-62
2022/10/19 03:43:30;;;;;;;;;;;;;;;15.89;63.56;100915.28;4975720;28;20410;-63
2022/10/19 03:45:55;;;;;;;;;;;;;;;15.88;63.74;100914.41;4976748;28;19925;-62
2022/10/19 03:48:20;;;;;;;;;;;;;;;16.05;63.08;100920.91;4976993;28;20290;-63
2022/10/19 03:50:46;;;;;;;;;;;;;;;16.05;63.22;100918.25;4976752;28;19929;-62
2022/10/19 03:53:11;;;;;;;;;;;;;;;16.07;63.02;100917.25;4976632;28;19945;-62
2022/10/19 03:55:36;;;;;;;;;;;;;;;16.24;62.65;100903.41;4975428;28;20012;-62
2022/10/19 03:58:02;;;;;;;;;;;;;;;16.31;62.52;100906.69;4975834;28;19922;-62
2022/10/19 04:00:27;;;;;;;;;;;;;;;16.40;62.09;100912.53;4977612;28;20429;-62
2022/10/19 04:02:52;;;;;;;;;;;;;;;16.21;62.79;100919.44;4974330;28;19922;-62
2022/10/19 04:05:17;;;;;;;;;;;;;;;16.25;62.63;100932.50;4973111;28;19926;-63
2022/10/19 04:07:43;;;;;;;;;;;;;;;16.20;62.72;100931.81;4976922;28;20281;-62
2022/10/19 04:10:08;;;;;;;;;;;;;;;16.10;63.23;100929.53;4976235;28;19922;-62
2022/10/19 04:12:33;;;;;;;;;;;;;;;16.02;63.54;100929.81;4977684;28;19914;-62
2022/10/19 04:14:59;;;;;;;;;;;;;;;16.02;63.21;100935.97;4974847;28;19922;-62
2022/10/19 04:17:24;;;;;;;;;;;;;;;16.23;62.65;100930.81;4977735;28;20009;-63
2022/10/19 04:19:49;;;;;;;;;;;;;;;16.02;63.29;100941.28;4976604;28;19922;-63
2022/10/19 04:22:15;;;;;;;;;;;;;;;16.01;63.30;100944.00;4976502;28;19929;-62
2022/10/19 04:24:40;;;;;;;;;;;;;;;15.89;63.63;100944.44;4976575;28;20076;-63
2022/10/19 04:27:05;;;;;;;;;;;;;;;16.06;63.32;100946.47;4977495;28;20263;-62
2022/10/19 04:29:30;;;;;;;;;;;;;;;16.14;62.82;100949.72;4976274;28;19918;-62
2022/10/19 04:31:56;;;;;;;;;;;;;;;15.94;63.06;100950.41;4976308;28;19918;-62
2022/10/19 04:34:22;;;;;;;;;;;;;;;15.92;63.44;100949.63;4976440;28;19965;-62
2022/10/19 04:36:47;;;;;;;;;;;;;;;15.67;64.16;100946.94;4972244;28;19918;-62
2022/10/19 04:39:12;;;;;;;;;;;;;;;15.69;64.01;100953.91;4973357;28;19918;-62
2022/10/19 04:41:38;;;;;;;;;;;;;;;15.91;63.53;100943.44;4975610;28;19922;-64
2022/10/19 04:44:05;;;;;;;;;;;;;;;15.90;63.31;100957.59;4974081;28;19952;-62
2022/10/19 04:46:31;;;;;;;;;;;;;;;16.00;63.05;100953.75;4976623;28;19924;-61
2022/10/19 04:48:56;;;;;;;;;;;;;;;16.00;63.01;100944.91;4972924;28;20380;-63
2022/10/19 04:51:22;;;;;;;;;;;;;;;16.32;62.42;100957.03;4974546;28;19922;-64
2022/10/19 04:53:47;;;;;;;;;;;;;;;16.45;61.75;100957.44;4975086;28;20366;-64
2022/10/19 04:56:22;;;;;;;;;;;;;;;16.10;62.56;100959.56;4975521;28;19926;-64
2022/10/19 04:58:48;;;;;;;;;;;;;;;16.19;62.51;100959.22;4975194;28;19918;-63
2022/10/19 05:01:13;;;;;;;;;;;;;;;16.13;62.39;100963.91;4975204;28;19926;-63
2022/10/19 05:03:39;;;;;;;;;;;;;;;16.24;61.95;100965.25;4975271;28;19926;-63
2022/10/19 05:06:05;;;;;;;;;;;;;;;16.21;62.37;100967.16;4975410;28;20271;-62
2022/10/19 05:08:31;;;;;;;;;;;;;;;16.16;62.56;100964.66;4974788;28;19922;-62
2022/10/19 05:11:00;;;;;;;;;;;;;;;16.33;61.75;100966.72;4974832;28;20275;-62
2022/10/19 05:13:26;;;;;;;;;;;;;;;16.00;62.56;100971.44;4973055;28;20020;-62
2022/10/19 05:15:55;;;;;;;;;;;;;;;16.20;62.15;100976.03;4974595;28;20012;-61
2022/10/19 05:18:20;;;;;;;;;;;;;;;16.02;62.51;100977.53;4975344;28;19945;-62
2022/10/19 05:20:45;;;;;;;;;;;;;;;15.91;62.85;100977.03;4975684;28;19926;-62
2022/10/19 05:23:10;;;;;;;;;;;;;;;15.58;63.61;100981.66;4975237;28;19941;-63
2022/10/19 05:25:36;;;;;;;;;;;;;;;15.47;64.07;100985.50;4974406;28;19925;-63
2022/10/19 05:28:01;;;;;;;;;;;;;;;15.35;64.43;100992.97;4975490;28;20004;-63
2022/10/19 05:30:26;;;;;;;;;;;;;;;15.58;63.29;100989.59;4973979;28;19922;-63
2022/10/19 05:32:51;;;;;;;;;;;;;;;15.59;63.39;100986.88;4974054;28;19938;-64
2022/10/19 05:35:17;;;;;;;;;;;;;;;15.67;63.00;100995.47;4975433;28;20011;-61
2022/10/19 05:37:42;;;;;;;;;;;;;;;15.79;62.60;101002.16;4970990;28;20370;-62
2022/10/19 05:40:08;;;;;;;;;;;;;;;15.84;62.20;100997.59;4975403;28;19977;-63
2022/10/19 05:42:33;;;;;;;;;;;;;;;15.81;62.14;101010.94;4972921;28;19976;-63
2022/10/19 05:44:59;;;;;;;;;;;;;;;15.26;63.61;101002.94;4974903;28;19926;-63
2022/10/19 05:47:24;;;;;;;;;;;;;;;15.19;64.07;101011.09;4972185;28;20382;-63
2022/10/19 05:49:49;;;;;;;;;;;;;;;15.20;63.93;101012.84;4977494;28;19997;-62
2022/10/19 05:52:16;;;;;;;;;;;;;;;15.42;63.01;101013.03;4972158;28;19922;-64
2022/10/19 05:54:41;;;;;;;;;;;;;;;15.51;63.04;101018.91;4970982;28;20313;-64
2022/10/19 05:57:07;;;;;;;;;;;;;;;15.45;62.92;101027.06;4977984;28;19929;-65
2022/10/19 05:59:32;;;;;;;;;;;;;;;15.50;62.86;101032.22;4981834;28;19925;-63
2022/10/19 06:01:57;;;;;;;;;;;;;;;15.37;62.88;101042.31;4985980;28;19960;-63
2022/10/19 06:04:23;;;;;;;;;;;;;;;15.52;63.10;101041.84;4974858;28;19918;-64
2022/10/19 06:06:48;;;;;;;;;;;;;;;15.48;62.85;101034.06;5005870;28;19921;-63
2022/10/19 06:09:13;;;;;;;;;;;;;;;15.38;63.37;101037.88;4974670;28;20373;-64
2022/10/19 06:11:40;;;;;;;;;;;;;;;15.24;63.70;101035.66;4972886;28;19944;-63
2022/10/19 06:14:07;;;;;;;;;;;;;;;15.21;63.37;101036.63;4980453;28;19925;-64
2022/10/19 06:16:33;;;;;;;;;;;;;;;15.43;62.86;101041.25;4974246;28;20031;-63
2022/10/19 06:18:59;;;;;;;;;;;;;;;15.36;63.12;101051.19;4974732;28;20369;-62
2022/10/19 06:21:25;;;;;;;;;;;;;;;15.60;62.62;101049.56;4973472;28;20297;-65
2022/10/19 06:23:52;;;;;;;;;;;;;;;15.46;62.75;101047.31;4975063;28;20016;-64
2022/10/19 06:26:17;;;;;;;;;;;;;;;15.60;62.55;101053.97;4974660;28;19918;-64
2022/10/19 06:28:43;;;;;;;;;;;;;;;15.44;62.99;101053.56;4974217;28;19918;-65
2022/10/19 06:31:09;;;;;;;;;;;;;;;15.48;62.84;101066.69;4974584;28;19963;-63
2022/10/19 06:33:35;;;;;;;;;;;;;;;15.38;63.15;101069.66;4975149;28;19914;-63
2022/10/19 06:36:04;;;;;;;;;;;;;;;15.51;62.23;101077.16;4974987;28;19918;-64
2022/10/19 06:38:29;;;;;;;;;;;;;;;15.74;61.71;101083.56;4990119;28;19919;-64
2022/10/19 06:40:57;;;;;;;;;;;;;;;15.07;62.86;101091.75;4955371;28;19919;-64
2022/10/19 06:43:22;;;;;;;;;;;;;;;14.70;63.54;101102.50;4986846;28;19914;-63
2022/10/19 06:45:47;;;;;;;;;;;;;;;15.07;62.80;101097.03;4956001;29;19922;-64
2022/10/19 06:48:13;;;;;;;;;;;;;;;14.97;62.63;101100.88;4955513;28;19968;-63
2022/10/19 06:50:38;;;;;;;;;;;;;;;15.08;60.92;101104.09;4974476;28;19924;-64
2022/10/19 06:53:03;;;;;;;;;;;;;;;15.06;61.29;101105.91;4974770;28;20437;-63
2022/10/19 06:55:28;;;;;;;;;;;;;;;15.28;60.17;101111.44;4974584;28;19914;-64
2022/10/19 06:57:54;;;;;;;;;;;;;;;15.46;60.21;101117.97;4974936;28;19925;-63
2022/10/19 07:00:19;;;;;;;;;;;;;;;15.25;60.46;101123.00;4976520;28;20026;-64
2022/10/19 07:02:44;;;;;;;;;;;;;;;15.28;60.96;101127.34;4978757;28;19946;-64
2022/10/19 07:05:10;;;;;;;;;;;;;;;15.32;61.03;101122.78;4974675;28;19973;-64
2022/10/19 07:07:35;;;;;;;;;;;;;;;15.67;59.36;101119.13;4966556;28;19922;-64
2022/10/19 07:10:00;;;;;;;;;;;;;;;15.62;58.98;101126.31;4977727;28;19922;-64
2022/10/19 07:12:26;;;;;;;;;;;;;;;15.77;59.22;101131.19;4977726;28;19918;-64
2022/10/19 07:14:53;;;;;;;;;;;;;;;15.82;58.36;101136.31;4977301;28;19925;-65
2022/10/19 07:17:18;;;;;;;;;;;;;;;15.99;58.04;101142.81;4978437;28;19953;-63
2022/10/19 07:19:43;;;;;;;;;;;;;;;15.58;58.66;101140.56;4978054;28;19922;-64
2022/10/19 07:22:09;;;;;;;;;;;;;;;14.99;59.00;101155.47;4977345;28;20416;-64
2022/10/19 07:24:34;;;;;;;;;;;;;;;14.65;59.87;101154.66;4978082;28;19921;-65
2022/10/19 07:26:59;;;;;;;;;;;;;;;14.53;60.83;101150.56;5008806;28;19930;-63
2022/10/19 07:29:25;;;;;;;;;;;;;;;14.41;61.04;101162.28;4978091;28;20059;-63
2022/10/19 07:31:50;;;;;;;;;;;;;;;14.99;59.96;101160.75;4977265;28;19922;-63
2022/10/19 07:34:15;;;;;;;;;;;;;;;14.91;59.63;101167.19;4977368;28;20390;-63
2022/10/19 07:36:44;;;;;;;;;;;;;;;15.63;58.59;101171.28;4977227;28;19925;-63
2022/10/19 07:39:09;;;;;;;;;;;;;;;15.99;57.07;101169.31;4977434;28;19926;-63
2022/10/19 07:41:35;;;;;;;;;;;;;;;16.21;55.81;101176.59;4977683;28;20270;-63
2022/10/19 07:44:00;;;;;;;;;;;;;;;15.89;56.28;101186.44;4977062;28;20366;-63
2022/10/19 07:46:32;;;;;;;;;;;;;;;15.59;56.70;101179.38;4977073;28;19926;-63
2022/10/19 07:48:58;;;;;;;;;;;;;;;15.64;56.39;101185.38;4976913;28;20427;-64
2022/10/19 07:51:23;;;;;;;;;;;;;;;15.52;56.39;101184.88;4973033;28;20088;-64
2022/10/19 07:53:48;;;;;;;;;;;;;;;15.57;55.98;101191.81;4970376;28;19914;-64
2022/10/19 07:56:15;;;;;;;;;;;;;;;15.64;56.11;101193.34;4978135;28;20294;-64
2022/10/19 07:58:41;;;;;;;;;;;;;;;15.85;55.69;101190.09;4959427;28;19915;-63
2022/10/19 08:01:11;;;;;;;;;;;;;;;16.09;55.79;101195.56;4958383;28;19922;-64
2022/10/19 08:03:36;;;;;;;;;;;;;;;15.67;55.00;101203.88;4971586;28;20009;-64
2022/10/19 08:06:06;;;;;;;;;;;;;;;15.93;56.21;101200.47;4976862;28;20398;-64
2022/10/19 08:08:32;;;;;;;;;;;;;;;15.81;55.18;101201.69;4976839;28;19925;-63
2022/10/19 08:10:57;;;;;;;;;;;;;;;15.57;55.98;101207.69;4976835;28;19922;-63
2022/10/19 08:13:22;;;;;;;;;;;;;;;16.04;55.30;101192.16;4976119;28;19936;-64
2022/10/19 08:15:48;;;;;;;;;;;;;;;15.84;55.30;101193.66;4976281;28;19985;-63
2022/10/19 08:18:15;;;;;;;;;;;;;;;15.67;55.63;101202.09;4975252;28;20389;-64
2022/10/19 08:20:41;;;;;;;;;;;;;;;14.98;55.91;101206.66;4976593;28;19996;-63
2022/10/19 08:23:06;;;;;;;;;;;;;;;15.44;54.81;101200.13;4976316;28;20394;-64
2022/10/19 08:25:31;;;;;;;;;;;;;;;15.65;54.76;101203.09;4976345;28;19937;-63
2022/10/19 08:27:57;;;;;;;;;;;;;;;15.37;55.00;101213.56;4976538;28;20333;-63
2022/10/19 08:30:22;;;;;;;;;;;;;;;15.75;54.25;101217.78;4976374;28;19930;-63
2022/10/19 08:32:47;;;;;;;;;;;;;;;15.67;54.01;101217.13;4976428;28;20020;-63
2022/10/19 08:35:13;;;;;;;;;;;;;;;15.77;52.33;101223.91;4975817;28;19922;-63
2022/10/19 08:37:38;;;;;;;;;;;;;;;15.31;54.24;101224.31;4976743;28;19918;-63
2022/10/19 08:40:04;;;;;;;;;;;;;;;15.44;53.29;101234.53;4967295;28;20016;-63
2022/10/19 08:42:42;;;;;;;;;;;;;;;15.35;53.99;101224.19;4975703;28;20016;-63
2022/10/19 08:45:26;;;;;;;;;;;;;;;14.75;54.84;101233.72;4976369;28;19929;-65
2022/10/19 08:47:57;;;;;;;;;;;;;;;15.38;53.84;101231.19;4976262;28;20269;-64
2022/10/19 08:50:23;;;;;;;;;;;;;;;15.47;53.29;101247.66;4975225;28;19926;-64
2022/10/19 08:52:53;;;;;;;;;;;;;;;15.46;53.08;101245.06;4975982;28;19933;-65
2022/10/19 08:55:22;;;;;;;;;;;;;;;15.69;52.69;101234.72;4975913;28;19925;-63
2022/10/19 08:58:12;;;;;;;;;;;;;;;15.81;52.32;101238.81;4975858;28;19957;-64
2022/10/19 09:00:47;;;;;;;;;;;;;;;16.06;52.30;101238.06;4975918;28;19922;-64
2022/10/19 09:03:18;;;;;;;;;;;;;;;16.27;51.57;101240.88;4975979;28;19952;-64
2022/10/19 09:05:43;;;;;;;;;;;;;;;16.07;52.15;101253.03;4975650;28;19928;-62
2022/10/19 09:08:10;;;;;;;;;;;;;;;15.58;51.30;101262.41;4975765;28;19918;-63
2022/10/19 09:10:37;;;;;;;;;;;;;;;14.84;52.61;101272.31;4975533;28;19917;-63
2022/10/19 09:13:16;;;;;;;;;;;;;;;14.66;53.19;101270.13;4975480;28;19929;-63
2022/10/19 09:15:45;;;;;;;;;;;;;;;14.25;53.97;101277.22;4975990;28;19976;-64
2022/10/19 09:18:22;;;;;;;;;;;;;;;14.17;54.60;101281.81;4974716;28;20405;-63
2022/10/19 09:20:49;;;;;;;;;;;;;;;13.90;55.50;101268.28;4975190;28;19918;-64
2022/10/19 09:23:54;;;;;;;;;;;;;;;13.86;55.42;101287.75;4973762;28;19954;-63
2022/10/19 09:26:21;;;;;;;;;;;;;;;13.83;55.45;101281.66;4952810;28;20386;-63
2022/10/19 09:28:49;;;;;;;;;;;;;;;13.64;55.83;101282.03;4954074;29;19918;-62
2022/10/19 09:31:20;;;;;;;;;;;;;;;13.89;54.64;101297.41;4960955;28;19998;-64
2022/10/19 09:33:48;;;;;;;;;;;;;;;14.20;53.94;101301.13;4972387;28;19954;-65
2022/10/19 09:36:14;;;;;;;;;;;;;;;14.28;53.06;101300.94;4975159;28;19921;-64
2022/10/19 09:38:39;;;;;;;;;;;;;;;14.56;53.02;101297.69;4974002;28;20025;-64
2022/10/19 09:41:19;;;;;;;;;;;;;;;14.93;52.06;101290.59;4975029;28;20009;-63
2022/10/19 09:43:51;;;;;;;;;;;;;;;14.12;52.92;101315.38;4973580;28;19925;-63
2022/10/19 09:46:25;;;;;;;;;;;;;;;14.37;53.42;101311.31;4975008;28;20317;-64
2022/10/19 09:48:51;;;;;;;;;;;;;;;14.94;51.75;101308.22;4975363;28;19973;-63
2022/10/19 09:51:17;;;;;;;;;;;;;;;15.28;49.50;101300.28;4975281;28;19922;-63
2022/10/19 09:53:54;;;;;;;;;;;;;;;15.39;50.07;101307.06;4975080;28;19965;-63
2022/10/19 09:56:24;;;;;;;;;;;;;;;15.82;50.56;101308.56;4973735;28;19957;-62
2022/10/19 09:58:50;;;;;;;;;;;;;;;15.76;50.57;101310.47;4974858;28;19942;-64
2022/10/19 10:01:35;;;;;;;;;;;;;;;15.78;49.60;101313.06;4974355;28;20724;-64
2022/10/19 10:04:04;;;;;;;;;;;;;;;15.72;49.72;101308.84;4974703;28;20000;-64
2022/10/19 10:06:30;;;;;;;;;;;;;;;15.19;50.28;101321.69;4969070;28;19918;-64
2022/10/19 10:08:58;;;;;;;;;;;;;;;15.10;49.96;101332.53;4974617;28;19929;-64
2022/10/19 10:11:28;;;;;;;;;;;;;;;14.71;50.35;101340.50;4974670;28;20254;-64
2022/10/19 10:13:54;;;;;;;;;;;;;;;14.03;51.98;101343.75;4974859;28;20367;-63
2022/10/19 10:16:21;;;;;;;;;;;;;;;14.09;52.16;101341.91;4969224;28;19922;-64
2022/10/19 10:18:52;;;;;;;;;;;;;;;14.28;52.29;101333.53;4974731;28;19918;-63
2022/10/19 10:21:22;;;;;;;;;;;;;;;14.47;51.91;101339.28;4973471;28;19989;-63
2022/10/19 10:24:04;;;;;;;;;;;;;;;14.40;51.86;101345.63;4963283;28;19924;-65
2022/10/19 10:26:29;;;;;;;;;;;;;;;14.42;51.09;101338.50;4970526;28;19972;-64
2022/10/19 10:28:54;;;;;;;;;;;;;;;14.70;50.29;101353.78;4973371;28;19957;-65
2022/10/19 10:31:24;;;;;;;;;;;;;;;14.70;49.61;101340.56;4983063;28;19932;-64
2022/10/19 10:33:55;;;;;;;;;;;;;;;14.83;49.47;101351.72;4974003;28;20357;-63
2022/10/19 10:36:22;;;;;;;;;;;;;;;15.13;47.75;101334.22;4971686;28;20008;-63
2022/10/19 10:38:49;;;;;;;;;;;;;;;15.19;46.93;101356.09;4973462;28;20286;-65
2022/10/19 10:41:16;;;;;;;;;;;;;;;15.51;45.68;101331.44;4974172;28;20334;-64
2022/10/19 10:43:50;;;;;;;;;;;;;;;15.37;44.43;101346.84;4970557;28;19925;-64
2022/10/19 10:46:19;;;;;;;;;;;;;;;15.65;44.60;101348.78;4970795;28;19922;-63
2022/10/19 10:48:51;;;;;;;;;;;;;;;15.07;46.36;101351.13;4973669;28;19917;-63
2022/10/19 10:51:21;;;;;;;;;;;;;;;14.76;46.12;101364.22;4973986;28;19945;-64
2022/10/19 10:53:46;;;;;;;;;;;;;;;15.14;44.77;101354.50;4973576;28;20396;-62
2022/10/19 10:56:20;;;;;;;;;;;;;;;15.23;43.99;101356.91;4975039;28;19918;-64
2022/10/19 10:58:52;;;;;;;;;;;;;;;15.26;41.81;101362.13;4974838;28;19914;-62
2022/10/19 11:01:38;;;;;;;;;;;;;;;15.31;43.08;101349.63;4974546;28;19964;-59
2022/10/19 11:04:07;;;;;;;;;;;;;;;14.74;45.01;101348.38;4963937;28;19960;-62
2022/10/19 11:06:35;;;;;;;;;;;;;;;15.19;45.40;101352.59;4974179;28;20421;-62
2022/10/19 11:09:19;;;;;;;;;;;;;;;15.31;44.80;101359.34;4972698;28;20378;-60
2022/10/19 11:11:46;;;;;;;;;;;;;;;15.05;45.29;101366.19;4973937;28;19960;-63
2022/10/19 11:14:30;;;;;;;;;;;;;;;14.91;45.89;101371.78;4975030;28;19953;-62
2022/10/19 11:16:58;;;;;;;;;;;;;;;14.90;45.75;101370.06;4970540;28;19961;-64
2022/10/19 11:19:31;;;;;;;;;;;;;;;14.34;44.03;101358.97;4973722;28;19964;-64
2022/10/19 11:22:03;;;;;;;;;;;;;;;14.33;43.60;101373.09;4974046;28;19918;-64
2022/10/19 11:24:28;;;;;;;;;;;;;;;14.06;43.40;101369.25;4973753;28;19950;-64
2022/10/19 11:27:12;;;;;;;;;;;;;;;14.12;43.32;101373.53;4974001;28;19918;-65
2022/10/19 11:29:37;;;;;;;;;;;;;;;14.44;43.41;101371.09;4971743;28;20025;-65
2022/10/19 11:32:04;;;;;;;;;;;;;;;15.18;42.11;101370.25;4972347;28;19969;-66
2022/10/19 11:34:32;;;;;;;;;;;;;;;15.32;41.60;101372.56;4973036;28;20012;-65
2022/10/19 11:36:57;;;;;;;;;;;;;;;15.55;41.14;101364.00;4973505;28;20277;-65
2022/10/19 11:39:23;;;;;;;;;;;;;;;15.61;41.72;101357.69;4973586;28;19918;-64
2022/10/19 11:42:04;;;;;;;;;;;;;;;14.94;41.48;101374.38;4971486;28;20005;-64
2022/10/19 11:44:29;;;;;;;;;;;;;;;14.87;41.68;101390.44;4968496;28;20385;-66
2022/10/19 11:46:55;;;;;;;;;;;;;;;14.33;42.37;101391.59;4974190;28;19983;-64
2022/10/19 11:49:23;;;;;;;;;;;;;;;14.73;42.69;101378.41;4975201;28;19977;-65
2022/10/19 11:51:50;;;;;;;;;;;;;;;14.47;42.43;101376.28;4974376;28;19925;-64
2022/10/19 11:54:23;;;;;;;;;;;;;;;14.85;42.58;101376.38;4977115;28;19913;-65
2022/10/19 11:57:20;;;;;;;;;;;;;;;14.41;42.47;101388.78;4971507;28;19918;-65
2022/10/19 12:00:03;;;;;;;;;;;;;;;13.55;43.11;101388.69;4952246;28;19914;-66
2022/10/19 12:02:28;;;;;;;;;;;;;;;13.90;42.85;101379.25;4976130;28;20329;-65
2022/10/19 12:05:09;;;;;;;;;;;;;;;13.75;43.46;101371.63;4975572;28;19945;-65
2022/10/19 12:07:37;;;;;;;;;;;;;;;14.13;43.31;101389.38;4976206;28;20005;-66
2022/10/19 12:10:11;;;;;;;;;;;;;;;14.41;42.87;101378.22;4975688;28;20376;-66
2022/10/19 12:12:39;;;;;;;;;;;;;;;15.11;41.49;101375.72;4976080;28;19957;-66
2022/10/19 12:15:10;;;;;;;;;;;;;;;15.24;40.69;101382.47;4976333;28;20366;-66
2022/10/19 12:17:37;;;;;;;;;;;;;;;15.46;39.89;101386.31;4969460;28;19965;-66
2022/10/19 12:20:06;;;;;;;;;;;;;;;15.24;39.89;101391.28;4976651;28;20005;-67
2022/10/19 12:22:33;;;;;;;;;;;;;;;14.69;41.11;101391.72;4976091;28;19973;-66
2022/10/19 12:25:00;;;;;;;;;;;;;;;14.78;41.27;101386.22;4973484;28;19961;-66
2022/10/19 12:27:33;;;;;;;;;;;;;;;14.69;41.98;101394.38;4966698;28;19918;-64
2022/10/19 12:30:02;;;;;;;;;;;;;;;14.62;42.82;101387.47;4976889;28;19918;-66
2022/10/19 12:32:29;;;;;;;;;;;;;;;14.44;43.32;101386.06;4975968;28;19971;-65
2022/10/19 12:35:16;;;;;;;;;;;;;;;14.52;43.36;101392.97;4975855;28;19976;-66
2022/10/19 12:38:02;;;;;;;;;;;;;;;14.14;43.94;101393.75;4972582;28;19977;-65
2022/10/19 12:40:30;;;;;;;;;;;;;;;13.76;45.08;101397.13;4982221;28;20342;-64